createdAt,value
2017-06-21T04:00:47.251Z,30
2017-06-21T04:01:12.734Z,30
2017-06-21T04:01:38.211Z,30
2017-06-21T04:02:03.665Z,30
2017-06-21T04:02:29.145Z,30
2017-06-21T04:02:54.637Z,30
2017-06-21T04:03:20.090Z,30
2017-06-21T04:03:45.565Z,30
2017-06-21T04:04:11.027Z,35
2017-06-21T04:04:36.518Z,35
2017-06-21T04:05:01.984Z,35
2017-06-21T04:05:27.461Z,35
2017-06-21T04:05:52.949Z,35
2017-06-21T04:06:18.406Z,35
2017-06-21T04:06:43.848Z,35
2017-06-21T04:07:09.313Z,35
2017-06-21T04:07:34.797Z,35
2017-06-21T04:08:00.288Z,35
2017-06-21T04:08:25.776Z,35
2017-06-21T04:08:51.231Z,35
2017-06-21T04:09:16.695Z,35
2017-06-21T04:09:42.165Z,35
2017-06-21T04:10:07.631Z,35
2017-06-21T04:10:33.089Z,35
2017-06-21T04:10:58.576Z,40
2017-06-21T04:11:24.041Z,40
2017-06-21T04:11:49.510Z,40
2017-06-21T04:12:14.972Z,40
2017-06-21T04:12:40.458Z,40
2017-06-21T04:13:05.949Z,40
2017-06-21T04:13:31.401Z,40
2017-06-21T04:13:56.876Z,40
2017-06-21T04:14:22.351Z,40
2017-06-21T04:14:47.830Z,40
2017-06-21T04:15:13.271Z,40
2017-06-21T04:15:38.742Z,40
2017-06-21T04:16:04.271Z,40
2017-06-21T04:16:29.740Z,45
2017-06-21T04:16:55.234Z,45
2017-06-21T04:17:20.669Z,45
2017-06-21T04:17:46.171Z,45
2017-06-21T04:18:11.638Z,45
2017-06-21T04:18:37.175Z,45
2017-06-21T04:19:02.665Z,45
2017-06-21T04:19:28.120Z,45
2017-06-21T04:19:53.621Z,45
2017-06-21T04:20:19.120Z,45
2017-06-21T04:20:44.643Z,45
2017-06-21T04:21:10.134Z,50
2017-06-21T04:21:35.568Z,50
2017-06-21T04:22:01.052Z,50
2017-06-21T04:22:26.537Z,50
2017-06-21T04:22:52.029Z,50
2017-06-21T04:23:17.519Z,50
2017-06-21T04:23:43.028Z,50
2017-06-21T04:24:08.534Z,50
2017-06-21T04:24:34.076Z,55
2017-06-21T04:24:59.544Z,55
2017-06-21T04:25:25.044Z,55
2017-06-21T04:25:50.518Z,55
2017-06-21T04:26:16.002Z,55
2017-06-21T04:26:41.484Z,55
2017-06-21T04:27:06.926Z,60
2017-06-21T04:27:32.383Z,60
2017-06-21T04:27:57.868Z,60
2017-06-21T04:28:23.370Z,60
2017-06-21T04:28:48.873Z,60
2017-06-21T04:29:14.360Z,60
2017-06-21T04:29:39.861Z,60
2017-06-21T04:30:05.354Z,60
2017-06-21T04:30:30.869Z,60
2017-06-21T04:30:56.376Z,60
2017-06-21T04:31:21.818Z,60
2017-06-21T04:31:47.287Z,60
2017-06-21T04:32:12.758Z,65
2017-06-21T04:32:38.197Z,65
2017-06-21T04:33:03.665Z,65
2017-06-21T04:33:29.147Z,65
2017-06-21T04:33:54.605Z,65
2017-06-21T04:34:20.073Z,70
2017-06-21T04:34:45.530Z,70
2017-06-21T04:35:11.023Z,70
2017-06-21T04:35:36.524Z,70
2017-06-21T04:36:02.009Z,70
2017-06-21T04:36:27.511Z,75
2017-06-21T04:36:52.963Z,75
2017-06-21T04:37:18.432Z,75
2017-06-21T04:37:43.915Z,75
2017-06-21T04:38:09.394Z,75
2017-06-21T04:38:34.861Z,75
2017-06-21T04:39:00.340Z,80
2017-06-21T04:39:25.807Z,80
2017-06-21T04:39:51.314Z,80
2017-06-21T04:40:16.807Z,80
2017-06-21T04:40:42.292Z,80
2017-06-21T04:41:07.719Z,80
2017-06-21T04:41:33.203Z,85
2017-06-21T04:41:58.683Z,85
2017-06-21T04:42:24.170Z,85
2017-06-21T04:42:49.612Z,85
2017-06-21T04:43:15.073Z,80
2017-06-21T04:43:40.555Z,85
2017-06-21T04:44:06.030Z,85
2017-06-21T04:44:31.493Z,85
2017-06-21T04:44:57.126Z,85
2017-06-21T04:45:22.655Z,85
2017-06-21T04:45:48.129Z,85
2017-06-21T04:46:13.577Z,85
2017-06-21T04:46:39.069Z,85
2017-06-21T04:47:04.565Z,90
2017-06-21T04:47:30.031Z,90
2017-06-21T04:47:55.483Z,90
2017-06-21T04:48:21.136Z,90
2017-06-21T04:48:46.561Z,90
2017-06-21T04:49:12.103Z,90
2017-06-21T04:49:37.656Z,90
2017-06-21T04:50:03.158Z,95
2017-06-21T04:50:28.748Z,95
2017-06-21T04:50:54.210Z,95
2017-06-21T04:51:19.714Z,95
2017-06-21T04:51:45.284Z,100
2017-06-21T04:52:10.790Z,100
2017-06-21T04:52:36.247Z,100
2017-06-21T04:53:01.772Z,105
2017-06-21T04:53:27.280Z,105
2017-06-21T04:53:52.840Z,105
2017-06-21T04:54:18.244Z,110
2017-06-21T04:54:43.725Z,110
2017-06-21T04:55:09.276Z,115
2017-06-21T04:55:34.755Z,115
2017-06-21T04:56:00.222Z,115
2017-06-21T04:56:25.811Z,120
2017-06-21T04:56:51.245Z,125
2017-06-21T04:57:16.754Z,125
2017-06-21T04:57:42.214Z,125
2017-06-21T04:58:07.738Z,125
2017-06-21T04:58:33.192Z,125
2017-06-21T04:58:58.658Z,130
2017-06-21T04:59:24.139Z,130
2017-06-21T04:59:49.644Z,130
2017-06-21T05:00:15.109Z,130
2017-06-21T05:00:40.556Z,130
2017-06-21T05:01:06.038Z,135
2017-06-21T05:01:31.507Z,135
2017-06-21T05:01:56.977Z,135
2017-06-21T05:02:22.459Z,135
2017-06-21T05:02:47.952Z,135
2017-06-21T05:03:13.417Z,135
2017-06-21T05:03:38.897Z,135
2017-06-21T05:04:04.339Z,135
2017-06-21T05:04:29.844Z,135
2017-06-21T05:04:55.304Z,135
2017-06-21T05:05:20.787Z,135
2017-06-21T05:05:46.273Z,135
2017-06-21T05:06:11.746Z,135
2017-06-21T05:06:37.212Z,145
2017-06-21T05:07:02.687Z,150
2017-06-21T05:07:28.141Z,160
2017-06-21T05:07:53.625Z,165
2017-06-21T05:08:19.102Z,170
2017-06-21T05:08:44.577Z,180
2017-06-21T05:09:10.053Z,180
2017-06-21T05:09:35.501Z,180
2017-06-21T05:10:00.970Z,180
2017-06-21T05:10:26.512Z,175
2017-06-21T05:10:52.014Z,170
2017-06-21T05:11:17.528Z,165
2017-06-21T05:11:43.106Z,165
2017-06-21T05:12:08.616Z,155
2017-06-21T05:12:34.104Z,155
2017-06-21T05:12:59.570Z,155
2017-06-21T05:13:25.064Z,150
2017-06-21T05:13:50.530Z,145
2017-06-21T05:14:15.986Z,145
2017-06-21T05:14:41.468Z,145
2017-06-21T05:15:06.990Z,140
2017-06-21T05:15:32.474Z,140
2017-06-21T05:15:57.957Z,135
2017-06-21T05:16:23.394Z,140
2017-06-21T05:16:48.862Z,135
2017-06-21T05:17:14.354Z,130
2017-06-21T05:17:39.839Z,135
2017-06-21T05:18:05.334Z,135
2017-06-21T05:18:30.825Z,130
2017-06-21T05:18:56.302Z,130
2017-06-21T05:19:21.893Z,130
2017-06-21T05:19:47.285Z,135
2017-06-21T05:20:12.745Z,125
2017-06-21T05:20:38.264Z,125
2017-06-21T05:21:03.740Z,130
2017-06-21T05:21:29.246Z,125
2017-06-21T05:21:54.759Z,125
2017-06-21T05:22:20.227Z,125
2017-06-21T05:22:45.779Z,125
2017-06-21T05:23:11.256Z,125
2017-06-21T05:23:36.759Z,125
2017-06-21T05:24:02.241Z,125
2017-06-21T05:25:15.567Z,125
2017-06-21T05:25:41.044Z,125
2017-06-21T05:26:06.518Z,125
2017-06-21T05:26:32.098Z,130
2017-06-21T05:26:57.615Z,125
2017-06-21T05:27:23.078Z,125
2017-06-21T05:27:48.541Z,125
2017-06-21T05:28:14.032Z,125
2017-06-21T05:28:39.483Z,125
2017-06-21T05:29:04.946Z,125
2017-06-21T05:29:30.404Z,125
2017-06-21T05:29:55.860Z,125
2017-06-21T05:30:21.383Z,125
2017-06-21T05:30:46.892Z,130
2017-06-21T05:31:12.341Z,135
2017-06-21T05:31:37.865Z,130
2017-06-21T05:32:03.299Z,130
2017-06-21T05:32:28.769Z,130
2017-06-21T05:32:54.354Z,130
2017-06-21T05:33:19.843Z,130
2017-06-21T05:33:45.370Z,130
2017-06-21T05:34:10.883Z,130
2017-06-21T05:34:36.375Z,130
2017-06-21T05:35:01.867Z,130
2017-06-21T05:35:27.305Z,135
2017-06-21T05:35:52.779Z,135
2017-06-21T05:36:18.229Z,140
2017-06-21T05:36:43.731Z,140
2017-06-21T05:37:09.199Z,140
2017-06-21T05:37:34.667Z,145
2017-06-21T05:38:00.152Z,145
2017-06-21T05:38:25.602Z,140
2017-06-21T05:38:51.072Z,145
2017-06-21T05:39:16.542Z,145
2017-06-21T05:39:42.020Z,145
2017-06-21T05:40:07.494Z,145
2017-06-21T05:40:32.980Z,145
2017-06-21T05:40:58.538Z,145
2017-06-21T05:41:23.982Z,145
2017-06-21T05:41:49.501Z,150
2017-06-21T05:42:14.945Z,150
2017-06-21T05:42:40.407Z,150
2017-06-21T05:43:05.907Z,120
2017-06-21T05:43:31.364Z,125
2017-06-21T05:43:56.827Z,130
2017-06-21T05:44:22.311Z,155
2017-06-21T05:44:47.837Z,155
2017-06-21T05:45:13.291Z,155
2017-06-21T05:45:38.768Z,155
2017-06-21T05:46:04.255Z,155
2017-06-21T05:46:29.716Z,155
2017-06-21T05:46:55.161Z,155
2017-06-21T05:47:20.641Z,155
2017-06-21T05:47:46.119Z,155
2017-06-21T05:48:11.626Z,155
2017-06-21T05:48:37.069Z,165
2017-06-21T05:49:02.533Z,155
2017-06-21T05:49:28.002Z,155
2017-06-21T05:49:53.507Z,155
2017-06-21T05:50:19.000Z,155
2017-06-21T05:50:44.462Z,155
2017-06-21T05:51:09.944Z,155
2017-06-21T05:51:35.432Z,155
2017-06-21T05:52:00.900Z,155
2017-06-21T05:52:26.389Z,155
2017-06-21T05:52:51.877Z,155
2017-06-21T05:53:17.325Z,155
2017-06-21T05:53:42.748Z,155
2017-06-21T05:54:08.222Z,150
2017-06-21T05:54:33.688Z,150
2017-06-21T05:54:59.120Z,150
2017-06-21T05:55:24.606Z,150
2017-06-21T05:55:50.128Z,150
2017-06-21T05:56:15.595Z,150
2017-06-21T05:56:41.111Z,145
2017-06-21T05:57:06.575Z,145
2017-06-21T05:57:32.073Z,145
2017-06-21T05:57:57.672Z,145
2017-06-21T05:58:23.161Z,140
2017-06-21T05:58:48.646Z,145
2017-06-21T05:59:14.125Z,145
2017-06-21T05:59:39.596Z,145
2017-06-21T06:00:05.086Z,145
2017-06-21T06:00:30.560Z,140
2017-06-21T06:00:56.007Z,145
2017-06-21T06:01:21.485Z,145
2017-06-21T06:01:46.977Z,145
2017-06-21T06:02:12.440Z,140
2017-06-21T06:02:37.925Z,140
2017-06-21T06:03:03.391Z,140
2017-06-21T06:03:28.871Z,140
2017-06-21T06:03:54.315Z,140
2017-06-21T06:04:19.815Z,140
2017-06-21T06:04:45.256Z,140
2017-06-21T06:05:10.725Z,135
2017-06-21T06:05:36.207Z,135
2017-06-21T06:06:01.684Z,135
2017-06-21T06:06:27.179Z,140
2017-06-21T06:06:52.632Z,140
2017-06-21T06:07:18.124Z,140
2017-06-21T06:07:43.609Z,135
2017-06-21T06:08:09.297Z,135
2017-06-21T06:08:34.714Z,135
2017-06-21T06:09:00.197Z,140
2017-06-21T06:09:25.660Z,140
2017-06-21T06:09:51.135Z,140
2017-06-21T06:10:16.579Z,140
2017-06-21T06:10:42.049Z,140
2017-06-21T06:11:07.514Z,145
2017-06-21T06:11:33.000Z,140
2017-06-21T06:11:58.488Z,140
2017-06-21T06:12:23.978Z,140
2017-06-21T06:12:49.440Z,140
2017-06-21T06:13:14.890Z,140
2017-06-21T06:13:40.351Z,145
2017-06-21T06:14:05.837Z,145
2017-06-21T06:14:31.287Z,140
2017-06-21T06:14:56.729Z,140
2017-06-21T06:15:22.204Z,150
2017-06-21T06:15:47.665Z,145
2017-06-21T06:16:13.138Z,150
2017-06-21T06:16:38.618Z,150
2017-06-21T06:17:04.112Z,150
2017-06-21T06:17:29.581Z,150
2017-06-21T06:17:55.050Z,155
2017-06-21T06:18:20.495Z,155
2017-06-21T06:18:45.983Z,160
2017-06-21T06:19:11.420Z,165
2017-06-21T06:19:36.898Z,170
2017-06-21T06:20:02.453Z,170
2017-06-21T06:20:27.921Z,175
2017-06-21T06:20:53.409Z,175
2017-06-21T06:21:18.882Z,175
2017-06-21T06:21:44.354Z,165
2017-06-21T06:22:09.834Z,145
2017-06-21T06:22:35.293Z,185
2017-06-21T06:23:00.759Z,180
2017-06-21T06:23:26.230Z,180
2017-06-21T06:23:51.698Z,180
2017-06-21T06:24:17.161Z,180
2017-06-21T06:24:42.671Z,180
2017-06-21T06:25:08.117Z,180
2017-06-21T06:25:33.607Z,180
2017-06-21T06:25:59.084Z,180
2017-06-21T06:26:24.545Z,180
2017-06-21T06:26:50.058Z,180
2017-06-21T06:27:15.513Z,180
2017-06-21T06:27:41.006Z,185
2017-06-21T06:28:06.470Z,175
2017-06-21T06:28:32.081Z,175
2017-06-21T06:28:57.553Z,175
2017-06-21T06:29:23.028Z,175
2017-06-21T06:29:48.498Z,175
2017-06-21T06:30:13.983Z,175
2017-06-21T06:30:39.467Z,170
2017-06-21T06:31:04.922Z,170
2017-06-21T06:31:30.405Z,165
2017-06-21T06:31:55.910Z,165
2017-06-21T06:32:21.406Z,175
2017-06-21T06:32:46.881Z,120
2017-06-21T06:33:12.346Z,140
2017-06-21T06:33:37.877Z,170
2017-06-21T06:34:03.391Z,175
2017-06-21T06:34:28.899Z,180
2017-06-21T06:34:54.374Z,185
2017-06-21T06:35:19.836Z,185
2017-06-21T06:35:45.309Z,180
2017-06-21T06:36:10.776Z,185
2017-06-21T06:36:36.241Z,185
2017-06-21T06:37:01.707Z,185
2017-06-21T06:37:27.167Z,190
2017-06-21T06:37:52.658Z,190
2017-06-21T06:38:18.126Z,190
2017-06-21T06:38:43.623Z,190
2017-06-21T06:39:09.109Z,195
2017-06-21T06:39:34.562Z,200
2017-06-21T06:40:00.037Z,200
2017-06-21T06:40:25.498Z,200
2017-06-21T06:40:50.984Z,200
2017-06-21T06:41:16.447Z,205
2017-06-21T06:41:42.028Z,205
2017-06-21T06:42:07.465Z,210
2017-06-21T06:42:32.970Z,210
2017-06-21T06:42:58.469Z,205
2017-06-21T06:43:23.954Z,200
2017-06-21T06:43:49.427Z,195
2017-06-21T06:44:14.903Z,195
2017-06-21T06:44:40.378Z,195
2017-06-21T06:45:05.865Z,200
2017-06-21T06:45:31.370Z,205
2017-06-21T06:45:56.824Z,205
2017-06-21T06:46:22.365Z,205
2017-06-21T06:46:47.819Z,205
2017-06-21T06:47:13.272Z,210
2017-06-21T06:47:38.726Z,205
2017-06-21T06:48:04.208Z,205
2017-06-21T06:48:29.688Z,205
2017-06-21T06:48:55.127Z,210
2017-06-21T06:49:20.585Z,205
2017-06-21T06:49:46.043Z,210
2017-06-21T06:50:11.487Z,215
2017-06-21T06:50:36.983Z,210
2017-06-21T06:51:02.475Z,205
2017-06-21T06:51:27.945Z,205
2017-06-21T06:51:53.448Z,205
2017-06-21T06:52:18.905Z,195
2017-06-21T06:52:44.443Z,195
2017-06-21T06:53:09.942Z,195
2017-06-21T06:53:35.428Z,195
2017-06-21T06:54:00.925Z,195
2017-06-21T06:54:26.396Z,200
2017-06-21T06:54:51.843Z,200
2017-06-21T06:55:17.399Z,205
2017-06-21T06:55:42.860Z,205
2017-06-21T06:56:08.352Z,190
2017-06-21T06:56:33.844Z,190
2017-06-21T06:56:59.342Z,185
2017-06-21T06:57:24.835Z,175
2017-06-21T06:57:50.336Z,170
2017-06-21T06:58:15.817Z,165
2017-06-21T06:58:41.257Z,180
2017-06-21T06:59:06.746Z,175
2017-06-21T06:59:32.219Z,180
2017-06-21T06:59:57.699Z,175
2017-06-21T07:00:23.179Z,185
2017-06-21T07:00:48.687Z,195
2017-06-21T07:01:14.155Z,200
2017-06-21T07:01:39.648Z,205
2017-06-21T07:02:05.126Z,215
2017-06-21T07:02:30.600Z,210
2017-06-21T07:02:56.069Z,210
2017-06-21T07:03:21.510Z,215
2017-06-21T07:03:47.144Z,210
2017-06-21T07:04:12.693Z,215
2017-06-21T07:04:38.119Z,215
2017-06-21T07:05:03.719Z,220
2017-06-21T07:05:29.206Z,215
2017-06-21T07:05:54.814Z,215
2017-06-21T07:06:20.391Z,215
2017-06-21T07:06:45.840Z,215
2017-06-21T07:07:11.357Z,215
2017-06-21T07:07:36.951Z,215
2017-06-21T07:08:02.412Z,215
2017-06-21T07:08:27.920Z,205
2017-06-21T07:08:53.495Z,200
2017-06-21T07:09:19.046Z,200
2017-06-21T07:09:44.729Z,205
2017-06-21T07:10:10.295Z,150
2017-06-21T07:10:35.765Z,175
2017-06-21T07:11:01.205Z,205
2017-06-21T07:11:26.706Z,205
2017-06-21T07:11:52.155Z,205
2017-06-21T07:12:17.601Z,205
2017-06-21T07:12:43.063Z,215
2017-06-21T07:13:08.529Z,205
2017-06-21T07:13:33.988Z,205
2017-06-21T07:13:59.475Z,205
2017-06-21T07:14:24.985Z,200
2017-06-21T07:14:50.452Z,200
2017-06-21T07:15:15.950Z,200
2017-06-21T07:15:41.402Z,200
2017-06-21T07:16:06.943Z,200
2017-06-21T07:16:32.421Z,200
2017-06-21T07:16:57.907Z,195
2017-06-21T07:17:23.403Z,195
2017-06-21T07:17:48.861Z,190
2017-06-21T07:18:14.352Z,190
2017-06-21T07:18:39.819Z,190
2017-06-21T07:19:05.292Z,195
2017-06-21T07:19:30.750Z,195
2017-06-21T07:19:56.211Z,190
2017-06-21T07:21:04.420Z,195
2017-06-21T07:21:29.890Z,190
2017-06-21T07:21:55.352Z,190
2017-06-21T07:22:20.822Z,195
2017-06-21T07:22:46.310Z,200
2017-06-21T07:23:11.772Z,195
2017-06-21T07:23:37.215Z,200
2017-06-21T07:24:02.676Z,190
2017-06-21T07:24:28.150Z,195
2017-06-21T07:24:53.620Z,195
2017-06-21T07:25:19.071Z,195
2017-06-21T07:25:44.560Z,195
2017-06-21T07:26:10.039Z,200
2017-06-21T07:26:35.534Z,200
2017-06-21T07:27:01.040Z,200
2017-06-21T07:27:26.504Z,195
2017-06-21T07:27:51.971Z,195
2017-06-21T07:28:17.460Z,200
2017-06-21T07:28:43.047Z,200
2017-06-21T07:29:08.508Z,200
2017-06-21T07:29:33.975Z,205
2017-06-21T07:29:59.433Z,200
2017-06-21T07:30:24.924Z,195
2017-06-21T07:30:50.391Z,195
2017-06-21T07:31:15.850Z,195
2017-06-21T07:31:41.317Z,195
2017-06-21T07:32:06.758Z,195
2017-06-21T07:32:32.223Z,195
2017-06-21T07:32:57.683Z,200
2017-06-21T07:33:23.177Z,195
2017-06-21T07:33:48.629Z,190
2017-06-21T07:34:14.099Z,190
2017-06-21T07:34:39.548Z,190
2017-06-21T07:35:05.057Z,195
2017-06-21T07:35:30.534Z,195
2017-06-21T07:35:55.981Z,195
2017-06-21T07:36:21.469Z,200
2017-06-21T07:36:46.974Z,190
2017-06-21T07:37:12.460Z,200
2017-06-21T07:37:37.951Z,200
2017-06-21T07:38:03.409Z,200
2017-06-21T07:38:28.865Z,195
2017-06-21T07:38:54.343Z,195
2017-06-21T07:39:19.807Z,190
2017-06-21T07:39:45.314Z,190
2017-06-21T07:40:10.801Z,190
2017-06-21T07:40:36.262Z,190
2017-06-21T07:41:01.743Z,190
2017-06-21T07:41:27.237Z,185
2017-06-21T07:41:52.696Z,185
2017-06-21T07:42:18.175Z,190
2017-06-21T07:42:43.677Z,185
2017-06-21T07:43:09.151Z,185
2017-06-21T07:43:34.612Z,190
2017-06-21T07:44:00.086Z,190
2017-06-21T07:44:25.630Z,190
2017-06-21T07:44:51.096Z,195
2017-06-21T07:45:16.555Z,185
2017-06-21T07:45:42.035Z,185
2017-06-21T07:46:07.518Z,190
2017-06-21T07:46:33.001Z,185
2017-06-21T07:46:58.466Z,185
2017-06-21T07:47:23.928Z,185
2017-06-21T07:47:49.423Z,185
2017-06-21T07:48:14.916Z,190
2017-06-21T07:48:40.423Z,185
2017-06-21T07:49:05.883Z,185
2017-06-21T07:49:31.365Z,185
2017-06-21T07:49:56.894Z,190
2017-06-21T07:50:22.357Z,190
2017-06-21T07:50:47.963Z,190
2017-06-21T07:51:13.441Z,185
2017-06-21T07:51:38.935Z,190
2017-06-21T07:52:04.376Z,185
2017-06-21T07:52:29.847Z,190
2017-06-21T07:52:55.325Z,185
2017-06-21T07:53:20.794Z,190
2017-06-21T07:53:46.288Z,190
2017-06-21T07:54:11.779Z,190
2017-06-21T07:54:37.265Z,190
2017-06-21T07:55:02.729Z,190
2017-06-21T07:55:28.207Z,190
2017-06-21T07:55:53.705Z,190
2017-06-21T07:56:19.249Z,185
2017-06-21T07:56:44.669Z,190
2017-06-21T07:57:10.159Z,185
2017-06-21T07:57:35.625Z,185
2017-06-21T07:58:01.109Z,185
2017-06-21T07:58:26.593Z,190
2017-06-21T07:58:52.068Z,185
2017-06-21T07:59:17.526Z,190
2017-06-21T07:59:42.980Z,185
2017-06-21T08:00:08.444Z,185
2017-06-21T08:00:33.922Z,185
2017-06-21T08:00:59.388Z,185
2017-06-21T08:01:24.894Z,185
2017-06-21T08:01:50.370Z,185
2017-06-21T08:02:15.884Z,185
2017-06-21T08:02:41.366Z,185
2017-06-21T08:03:06.887Z,185
2017-06-21T08:03:32.337Z,185
2017-06-21T08:03:57.827Z,180
2017-06-21T08:04:23.299Z,185
2017-06-21T08:04:48.780Z,180
2017-06-21T08:05:14.231Z,185
2017-06-21T08:05:39.698Z,185
2017-06-21T08:06:05.211Z,185
2017-06-21T08:06:30.661Z,185
2017-06-21T08:06:56.122Z,185
2017-06-21T08:07:21.590Z,185
2017-06-21T08:07:47.023Z,185
2017-06-21T08:08:12.468Z,185
2017-06-21T08:08:37.974Z,185
2017-06-21T08:09:03.490Z,185
2017-06-21T08:09:28.986Z,185
2017-06-21T08:09:54.452Z,185
2017-06-21T08:10:19.967Z,185
2017-06-21T08:10:45.535Z,185
2017-06-21T08:11:10.951Z,185
2017-06-21T08:11:36.457Z,185
2017-06-21T08:12:01.877Z,185
2017-06-21T08:12:27.336Z,185
2017-06-21T08:12:52.802Z,185
2017-06-21T08:13:18.269Z,185
2017-06-21T08:13:43.750Z,185
2017-06-21T08:14:09.253Z,185
2017-06-21T08:14:34.754Z,185
2017-06-21T08:15:00.253Z,185
2017-06-21T08:15:25.734Z,185
2017-06-21T08:15:51.197Z,185
2017-06-21T08:16:16.682Z,185
2017-06-21T08:16:42.149Z,185
2017-06-21T08:17:07.645Z,185
2017-06-21T08:17:33.144Z,185
2017-06-21T08:17:58.622Z,185
2017-06-21T08:18:24.127Z,185
2017-06-21T08:18:49.619Z,180
2017-06-21T08:19:15.111Z,185
2017-06-21T08:19:40.569Z,185
2017-06-21T08:20:06.032Z,185
2017-06-21T08:20:31.578Z,185
2017-06-21T08:20:57.134Z,180
2017-06-21T08:21:22.588Z,180
2017-06-21T08:21:48.169Z,175
2017-06-21T08:22:13.681Z,185
2017-06-21T08:22:39.254Z,180
2017-06-21T08:23:04.771Z,185
2017-06-21T08:23:30.250Z,180
2017-06-21T08:23:55.728Z,180
2017-06-21T08:24:21.207Z,185
2017-06-21T08:24:46.726Z,185
2017-06-21T08:25:12.240Z,185
2017-06-21T08:25:37.795Z,185
2017-06-21T08:26:03.241Z,185
2017-06-21T08:26:28.693Z,185
2017-06-21T08:26:54.180Z,170
2017-06-21T08:27:19.631Z,185
2017-06-21T08:27:45.150Z,185
2017-06-21T08:28:10.655Z,185
2017-06-21T08:28:36.126Z,185
2017-06-21T08:29:01.624Z,185
2017-06-21T08:29:27.130Z,185
2017-06-21T08:29:52.629Z,185
2017-06-21T08:30:18.143Z,185
2017-06-21T08:30:43.614Z,185
2017-06-21T08:31:09.067Z,185
2017-06-21T08:31:34.530Z,185
2017-06-21T08:31:59.981Z,185
2017-06-21T08:32:25.502Z,185
2017-06-21T08:32:50.967Z,185
2017-06-21T08:33:16.461Z,180
2017-06-21T08:33:41.939Z,185
2017-06-21T08:34:07.438Z,185
2017-06-21T08:34:32.894Z,185
2017-06-21T08:34:58.467Z,185
2017-06-21T08:35:23.940Z,185
2017-06-21T08:35:49.426Z,180
2017-06-21T08:36:14.930Z,180
2017-06-21T08:36:40.384Z,180
2017-06-21T08:37:05.939Z,180
2017-06-21T08:37:31.328Z,180
2017-06-21T08:37:56.825Z,180
2017-06-21T08:38:22.308Z,175
2017-06-21T08:38:47.760Z,175
2017-06-21T08:39:13.254Z,175
2017-06-21T08:39:38.677Z,175
2017-06-21T08:40:04.157Z,175
2017-06-21T08:40:29.610Z,180
2017-06-21T08:40:55.182Z,175
2017-06-21T08:41:20.657Z,175
2017-06-21T08:41:46.141Z,175
2017-06-21T08:42:11.627Z,180
2017-06-21T08:42:37.055Z,180
2017-06-21T08:43:02.543Z,180
2017-06-21T08:43:27.997Z,180
2017-06-21T08:43:53.476Z,180
2017-06-21T08:44:18.957Z,180
2017-06-21T08:44:44.418Z,180
2017-06-21T08:45:09.909Z,180
2017-06-21T08:45:35.419Z,180
2017-06-21T08:46:00.912Z,180
2017-06-21T08:46:26.362Z,180
2017-06-21T08:46:51.822Z,175
2017-06-21T08:47:17.313Z,180
2017-06-21T08:47:42.801Z,175
2017-06-21T08:48:08.364Z,175
2017-06-21T08:48:33.849Z,175
2017-06-21T08:48:59.338Z,175
2017-06-21T08:49:24.790Z,175
2017-06-21T08:49:50.278Z,170
2017-06-21T08:50:15.763Z,170
2017-06-21T08:50:41.215Z,165
2017-06-21T08:51:06.672Z,165
2017-06-21T08:51:32.128Z,165
2017-06-21T08:51:57.595Z,165
2017-06-21T08:52:23.070Z,170
2017-06-21T08:52:48.515Z,170
2017-06-21T08:53:13.999Z,170
2017-06-21T08:53:39.491Z,170
2017-06-21T08:54:04.976Z,170
2017-06-21T08:54:30.458Z,170
2017-06-21T08:54:55.957Z,165
2017-06-21T08:55:21.459Z,165
2017-06-21T08:55:46.927Z,165
2017-06-21T08:56:12.393Z,165
2017-06-21T08:56:37.876Z,165
2017-06-21T08:57:03.336Z,165
2017-06-21T08:57:28.789Z,170
2017-06-21T08:57:54.271Z,165
2017-06-21T08:58:19.715Z,160
2017-06-21T08:58:45.180Z,165
2017-06-21T08:59:10.639Z,160
2017-06-21T08:59:36.138Z,160
2017-06-21T09:00:01.659Z,160
2017-06-21T09:00:27.150Z,160
2017-06-21T09:00:52.622Z,160
2017-06-21T09:01:18.122Z,160
2017-06-21T09:01:43.618Z,160
2017-06-21T09:02:09.081Z,155
2017-06-21T09:02:34.562Z,160
2017-06-21T09:03:00.041Z,160
2017-06-21T09:03:25.512Z,155
2017-06-21T09:03:50.982Z,155
2017-06-21T09:04:16.433Z,155
2017-06-21T09:04:41.930Z,155
2017-06-21T09:05:07.429Z,160
2017-06-21T09:05:32.887Z,160
2017-06-21T09:05:58.373Z,155
2017-06-21T09:06:23.862Z,160
2017-06-21T09:06:49.327Z,160
2017-06-21T09:07:14.813Z,155
2017-06-21T09:07:40.258Z,155
2017-06-21T09:08:05.733Z,155
2017-06-21T09:08:31.214Z,155
2017-06-21T09:08:56.701Z,155
2017-06-21T09:09:22.145Z,155
2017-06-21T09:09:47.645Z,155
2017-06-21T09:10:13.134Z,155
2017-06-21T09:10:38.602Z,155
2017-06-21T09:11:04.076Z,160
2017-06-21T09:11:29.533Z,160
2017-06-21T09:11:55.038Z,155
2017-06-21T09:12:20.488Z,155
2017-06-21T09:12:45.951Z,155
2017-06-21T09:13:11.401Z,160
2017-06-21T09:13:36.926Z,165
2017-06-21T09:14:02.378Z,165
2017-06-21T09:14:27.840Z,165
2017-06-21T09:14:53.325Z,165
2017-06-21T09:15:18.819Z,170
2017-06-21T09:15:44.300Z,170
2017-06-21T09:16:09.800Z,175
2017-06-21T09:16:35.280Z,175
2017-06-21T09:17:00.761Z,180
2017-06-21T09:17:26.257Z,180
2017-06-21T09:17:51.718Z,175
2017-06-21T09:18:17.237Z,180
2017-06-21T09:18:42.694Z,180
2017-06-21T09:19:08.168Z,175
2017-06-21T09:19:33.635Z,175
2017-06-21T09:19:59.106Z,175
2017-06-21T09:20:24.571Z,180
2017-06-21T09:20:50.067Z,150
2017-06-21T09:21:15.561Z,175
2017-06-21T09:21:41.010Z,175
2017-06-21T09:22:06.481Z,175
2017-06-21T09:22:31.966Z,175
2017-06-21T09:22:57.446Z,175
2017-06-21T09:23:22.924Z,170
2017-06-21T09:23:48.467Z,170
2017-06-21T09:24:13.930Z,170
2017-06-21T09:24:39.407Z,170
2017-06-21T09:25:04.879Z,170
2017-06-21T09:25:30.348Z,170
2017-06-21T09:25:55.861Z,170
2017-06-21T09:26:21.378Z,165
2017-06-21T09:26:46.816Z,170
2017-06-21T09:27:12.394Z,165
2017-06-21T09:27:37.939Z,170
2017-06-21T09:28:03.472Z,160
2017-06-21T09:28:28.952Z,170
2017-06-21T09:28:54.445Z,170
2017-06-21T09:29:19.911Z,170
2017-06-21T09:29:45.371Z,170
2017-06-21T09:30:10.839Z,170
2017-06-21T09:30:36.306Z,170
2017-06-21T09:31:01.767Z,170
2017-06-21T09:31:27.222Z,175
2017-06-21T09:31:52.678Z,175
2017-06-21T09:32:18.147Z,175
2017-06-21T09:32:43.609Z,175
2017-06-21T09:33:09.070Z,175
2017-06-21T09:33:34.584Z,175
2017-06-21T09:34:00.065Z,175
2017-06-21T09:34:25.533Z,180
2017-06-21T09:34:50.975Z,180
2017-06-21T09:35:16.454Z,175
2017-06-21T09:36:29.794Z,175
2017-06-21T09:36:55.285Z,170
2017-06-21T09:37:20.765Z,175
2017-06-21T09:37:46.229Z,175
2017-06-21T09:38:11.733Z,175
2017-06-21T09:38:37.202Z,175
2017-06-21T09:39:02.648Z,175
2017-06-21T09:39:28.102Z,175
2017-06-21T09:39:53.587Z,180
2017-06-21T09:40:19.088Z,175
2017-06-21T09:40:44.568Z,175
2017-06-21T09:41:10.047Z,180
2017-06-21T09:41:35.518Z,180
2017-06-21T09:42:00.967Z,180
2017-06-21T09:42:26.446Z,185
2017-06-21T09:42:51.910Z,180
2017-06-21T09:43:17.387Z,180
2017-06-21T09:43:42.867Z,175
2017-06-21T09:44:08.355Z,175
2017-06-21T09:44:33.835Z,175
2017-06-21T09:44:59.287Z,175
2017-06-21T09:45:24.744Z,175
2017-06-21T09:45:50.215Z,175
2017-06-21T09:46:15.670Z,175
2017-06-21T09:46:41.176Z,175
2017-06-21T09:47:06.678Z,175
2017-06-21T09:47:32.156Z,175
2017-06-21T09:47:57.622Z,170
2017-06-21T09:48:23.110Z,175
2017-06-21T09:48:48.593Z,175
2017-06-21T09:49:14.059Z,180
2017-06-21T09:49:39.540Z,175
2017-06-21T09:50:04.992Z,180
2017-06-21T09:50:30.442Z,180
2017-06-21T09:50:55.887Z,180
2017-06-21T09:51:21.349Z,180
2017-06-21T09:51:46.832Z,185
2017-06-21T09:52:12.287Z,185
2017-06-21T09:52:37.757Z,190
2017-06-21T09:53:03.214Z,190
2017-06-21T09:53:28.864Z,195
2017-06-21T09:53:54.345Z,190
2017-06-21T09:54:19.993Z,190
2017-06-21T09:54:45.562Z,190
2017-06-21T09:55:11.135Z,190
2017-06-21T09:55:36.698Z,195